createdAt,value
2018-10-12T00:00:26.041Z,24.63
2018-10-12T00:02:53.478Z,23.80
2018-10-12T00:05:20.925Z,24.13
2018-10-12T00:07:48.358Z,24.77
2018-10-12T00:10:15.821Z,27.00
2018-10-12T00:12:43.194Z,27.57
2018-10-12T00:15:10.614Z,25.60
2018-10-12T00:17:38.070Z,25.97
2018-10-12T00:20:06.151Z,25.43
2018-10-12T00:22:33.589Z,25.60
2018-10-12T00:25:00.944Z,25.33
2018-10-12T00:27:28.333Z,25.60
2018-10-12T00:29:55.776Z,26.53
2018-10-12T00:32:23.229Z,27.27
2018-10-12T00:34:50.641Z,26.10
2018-10-12T00:37:18.076Z,26.63
2018-10-12T00:39:45.550Z,26.67
2018-10-12T00:42:12.925Z,26.23
2018-10-12T00:44:40.325Z,26.87
2018-10-12T00:47:07.745Z,27.37
2018-10-12T00:49:35.193Z,25.80
2018-10-12T00:52:02.668Z,27.80
2018-10-12T00:54:30.067Z,24.87
2018-10-12T00:56:57.474Z,23.60
2018-10-12T00:59:24.968Z,24.50
2018-10-12T01:01:52.369Z,24.10
2018-10-12T01:04:19.843Z,26.97
2018-10-12T01:06:47.428Z,26.93
2018-10-12T01:09:14.749Z,26.13
2018-10-12T01:11:42.182Z,26.27
2018-10-12T01:14:09.593Z,25.17
2018-10-12T01:16:37.027Z,27.73
2018-10-12T01:19:04.453Z,24.00
2018-10-12T01:21:31.880Z,24.63
2018-10-12T01:23:59.388Z,26.13
2018-10-12T01:26:26.824Z,24.80
2018-10-12T01:28:55.607Z,24.03
2018-10-12T01:31:23.622Z,28.77
2018-10-12T01:33:51.130Z,27.30
2018-10-12T01:36:18.617Z,28.13
2018-10-12T01:38:46.016Z,31.00
2018-10-12T01:41:13.666Z,34.93
2018-10-12T01:43:41.133Z,31.80
2018-10-12T01:46:08.569Z,37.17
2018-10-12T01:48:36.027Z,26.60
2018-10-12T01:51:03.541Z,33.30
2018-10-12T01:53:30.977Z,33.23
2018-10-12T01:56:00.821Z,27.40
2018-10-12T01:58:28.657Z,29.17
2018-10-12T02:00:56.222Z,28.23
2018-10-12T02:03:23.628Z,34.53
2018-10-12T02:05:51.046Z,32.60
2018-10-12T02:08:18.521Z,41.33
2018-10-12T02:10:45.926Z,35.33
2018-10-12T02:13:13.313Z,32.83
2018-10-12T02:15:40.743Z,43.87
2018-10-12T02:18:08.181Z,43.63
2018-10-12T02:20:35.562Z,42.40
2018-10-12T02:23:03.046Z,36.80
2018-10-12T02:25:30.430Z,36.93
2018-10-12T02:27:57.850Z,32.10
2018-10-12T02:30:25.272Z,31.33
2018-10-12T02:32:52.676Z,36.57
2018-10-12T02:35:20.261Z,48.10
2018-10-12T02:37:47.666Z,47.47
2018-10-12T02:40:15.065Z,40.20
2018-10-12T02:42:42.490Z,41.80
2018-10-12T02:45:09.921Z,37.13
2018-10-12T02:47:37.292Z,36.33
2018-10-12T02:50:05.901Z,43.37
2018-10-12T02:52:33.314Z,37.57
2018-10-12T02:55:00.733Z,34.13
2018-10-12T02:57:28.137Z,38.97
2018-10-12T02:59:55.585Z,38.03
2018-10-12T03:02:23.021Z,32.30
2018-10-12T03:04:50.521Z,34.67
2018-10-12T03:07:17.967Z,34.07
2018-10-12T03:09:45.341Z,34.30
2018-10-12T03:12:12.774Z,36.00
2018-10-12T03:14:40.214Z,35.57
2018-10-12T03:17:07.632Z,33.53
2018-10-12T03:19:35.075Z,36.07
2018-10-12T03:22:02.578Z,41.70
2018-10-12T03:24:29.956Z,46.53
2018-10-12T03:26:57.387Z,54.83
2018-10-12T03:29:24.849Z,48.07
2018-10-12T03:31:52.298Z,50.20
2018-10-12T03:34:19.774Z,46.60
2018-10-12T03:36:47.250Z,42.77
2018-10-12T03:39:14.754Z,50.27
2018-10-12T03:41:42.210Z,57.17
2018-10-12T03:44:09.777Z,57.23
2018-10-12T03:46:37.253Z,54.50
2018-10-12T03:49:04.800Z,62.67
2018-10-12T03:51:32.425Z,54.60
2018-10-12T03:53:59.960Z,58.90
2018-10-12T03:56:27.333Z,55.63
2018-10-12T03:58:54.766Z,56.23
2018-10-12T04:01:22.167Z,62.97
2018-10-12T04:03:49.536Z,53.57
2018-10-12T04:06:17.095Z,48.57
2018-10-12T04:08:44.583Z,49.33
2018-10-12T04:11:11.995Z,54.37
2018-10-12T04:13:39.507Z,55.10
2018-10-12T04:16:07.020Z,46.80
2018-10-12T04:18:34.556Z,45.43
2018-10-12T04:21:02.058Z,41.33
2018-10-12T04:23:29.531Z,61.90
2018-10-12T04:25:57.033Z,67.33
2018-10-12T04:28:24.577Z,70.40
2018-10-12T04:30:52.002Z,62.43
2018-10-12T04:33:19.480Z,76.93
2018-10-12T04:35:47.054Z,61.83
2018-10-12T04:38:14.546Z,49.83
2018-10-12T04:41:15.141Z,43.37
2018-10-12T04:43:43.365Z,43.00
2018-10-12T04:46:13.321Z,50.37
2018-10-12T04:48:41.677Z,62.63
2018-10-12T04:51:12.425Z,93.80
2018-10-12T04:53:39.976Z,53.20
2018-10-12T04:56:10.132Z,44.87
2018-10-12T04:58:38.298Z,43.17
2018-10-12T05:01:05.898Z,49.83
2018-10-12T05:03:33.345Z,60.03
2018-10-12T05:06:01.015Z,80.53
2018-10-12T05:08:28.554Z,73.63
2018-10-12T05:10:56.014Z,80.07
2018-10-12T05:13:23.618Z,58.57
2018-10-12T05:15:51.129Z,55.00
2018-10-12T05:18:18.591Z,45.37
2018-10-12T05:20:46.130Z,40.23
2018-10-12T05:23:13.651Z,40.97
2018-10-12T05:25:41.490Z,41.17
2018-10-12T05:28:09.046Z,39.77
2018-10-12T05:30:36.632Z,52.80
2018-10-12T05:33:04.213Z,55.67
2018-10-12T05:35:31.707Z,51.33
2018-10-12T05:37:59.302Z,44.20
2018-10-12T05:40:26.864Z,48.30
2018-10-12T05:42:54.419Z,53.10
2018-10-12T05:45:22.573Z,45.77
2018-10-12T05:47:50.171Z,68.27
2018-10-12T05:50:17.794Z,85.87
2018-10-12T05:52:45.360Z,74.03
2018-10-12T05:55:13.523Z,55.53
2018-10-12T05:57:42.353Z,54.03
2018-10-12T06:00:10.624Z,62.57
2018-10-12T06:02:38.315Z,50.23
2018-10-12T06:05:06.057Z,55.63
2018-10-12T06:07:34.253Z,62.57
2018-10-12T06:10:01.872Z,43.07
2018-10-12T06:12:29.287Z,50.93
2018-10-12T06:14:56.838Z,53.47
2018-10-12T06:17:24.466Z,80.03
2018-10-12T06:19:52.105Z,81.20
2018-10-12T06:22:19.575Z,70.27
2018-10-12T06:24:47.123Z,53.37
2018-10-12T06:27:14.721Z,61.63
2018-10-12T06:29:42.298Z,60.80
2018-10-12T06:32:09.887Z,76.10
2018-10-12T06:34:37.452Z,81.47
2018-10-12T06:37:05.042Z,85.07
2018-10-12T06:39:32.752Z,77.00
2018-10-12T06:42:00.298Z,82.33
2018-10-12T06:44:28.020Z,97.73
2018-10-12T06:46:55.750Z,102.33
2018-10-12T06:49:23.316Z,110.33
2018-10-12T06:51:50.897Z,117.53
2018-10-12T06:54:18.484Z,126.47
2018-10-12T06:56:46.837Z,126.97
2018-10-12T06:59:14.632Z,123.83
2018-10-12T07:01:42.470Z,101.87
2018-10-12T07:04:10.146Z,96.07
2018-10-12T07:06:37.982Z,91.17
2018-10-12T07:09:08.274Z,107.97
2018-10-12T07:11:35.825Z,96.30
2018-10-12T07:14:03.518Z,82.67
2018-10-12T07:16:31.109Z,83.40
2018-10-12T07:18:58.709Z,84.53
2018-10-12T07:21:26.293Z,80.40
2018-10-12T07:23:54.112Z,87.27
2018-10-12T07:26:21.653Z,91.97
2018-10-12T07:28:49.532Z,91.57
2018-10-12T07:31:17.162Z,69.90
2018-10-12T07:33:44.837Z,68.53
2018-10-12T07:36:13.043Z,70.33
2018-10-12T07:38:40.614Z,71.33
2018-10-12T07:41:08.765Z,62.40
2018-10-12T07:43:36.429Z,58.13
2018-10-12T07:46:04.012Z,55.30
2018-10-12T07:48:31.607Z,58.43
2018-10-12T07:50:59.200Z,53.53
2018-10-12T07:53:26.880Z,54.03
2018-10-12T07:55:54.539Z,50.30
2018-10-12T07:58:22.208Z,48.47
2018-10-12T08:00:49.889Z,44.63
2018-10-12T08:03:17.340Z,40.47
2018-10-12T08:05:44.941Z,43.43
2018-10-12T08:08:12.492Z,40.40
2018-10-12T08:10:40.217Z,38.13
2018-10-12T08:13:07.878Z,36.37
2018-10-12T08:15:35.601Z,36.90
2018-10-12T08:18:03.237Z,35.67
2018-10-12T08:20:31.031Z,34.73
2018-10-12T08:22:59.097Z,31.97
2018-10-12T08:25:26.654Z,30.73
2018-10-12T08:27:54.321Z,30.07
2018-10-12T08:30:21.821Z,28.23
2018-10-12T08:32:49.549Z,28.53
2018-10-12T08:35:17.361Z,29.67
2018-10-12T08:37:44.981Z,28.93
2018-10-12T08:40:12.700Z,26.30
2018-10-12T08:42:40.292Z,27.03
2018-10-12T08:45:07.919Z,26.30
2018-10-12T08:47:35.630Z,26.10
2018-10-12T08:50:03.245Z,25.90
2018-10-12T08:52:30.909Z,23.27
2018-10-12T08:54:58.513Z,24.40
2018-10-12T08:57:26.101Z,22.83
2018-10-12T08:59:53.818Z,23.23
2018-10-12T09:02:21.284Z,22.87
2018-10-12T09:04:48.898Z,22.17
2018-10-12T09:07:16.902Z,21.40
2018-10-12T09:09:44.434Z,23.23
2018-10-12T09:12:11.986Z,22.37
2018-10-12T09:17:10.557Z,22.47
2018-10-12T09:19:38.224Z,22.00
2018-10-12T09:22:05.923Z,20.80
2018-10-12T09:24:33.629Z,21.43
2018-10-12T09:27:01.238Z,22.00
2018-10-12T09:29:28.875Z,21.63
2018-10-12T09:31:56.448Z,21.13
2018-10-12T09:34:23.920Z,20.77
2018-10-12T09:36:51.672Z,20.50
2018-10-12T09:39:19.289Z,20.57
2018-10-12T09:41:47.013Z,20.77
2018-10-12T09:44:14.531Z,19.37
2018-10-12T09:46:42.172Z,21.17
2018-10-12T09:49:09.902Z,19.53
2018-10-12T09:51:37.598Z,19.90
2018-10-12T09:54:05.288Z,19.57
2018-10-12T09:56:32.893Z,19.83
2018-10-12T09:59:00.523Z,19.20
2018-10-12T10:01:33.718Z,19.30
2018-10-12T10:04:07.081Z,19.40
2018-10-12T10:06:34.603Z,17.97
2018-10-12T10:09:03.195Z,18.43
2018-10-12T10:11:31.072Z,19.17
2018-10-12T10:13:58.801Z,18.87
2018-10-12T10:16:27.370Z,18.07
2018-10-12T10:18:55.014Z,19.00
2018-10-12T10:21:22.620Z,17.80
2018-10-12T10:23:50.251Z,18.40
2018-10-12T10:26:18.446Z,18.60
2018-10-12T10:28:46.015Z,17.63
2018-10-12T10:31:13.641Z,18.93
2018-10-12T10:33:41.307Z,17.03
2018-10-12T10:36:08.866Z,17.67
2018-10-12T10:38:36.850Z,17.80
2018-10-12T10:41:04.373Z,17.37
2018-10-12T10:43:31.916Z,17.53
2018-10-12T10:45:59.568Z,17.07
2018-10-12T10:48:27.244Z,17.40
2018-10-12T10:50:54.998Z,16.43
2018-10-12T10:53:23.013Z,17.07
2018-10-12T10:55:50.719Z,17.23
2018-10-12T10:58:18.233Z,17.47
2018-10-12T11:00:45.965Z,17.57
2018-10-12T11:03:13.508Z,15.97
2018-10-12T11:05:41.369Z,16.57
2018-10-12T11:08:08.957Z,16.77
2018-10-12T11:10:37.645Z,16.40
2018-10-12T11:13:05.738Z,16.37
2018-10-12T11:15:33.267Z,16.60
2018-10-12T11:18:00.846Z,15.83
2018-10-12T11:20:28.381Z,16.17
2018-10-12T11:22:56.138Z,15.73
2018-10-12T11:25:23.784Z,16.27
2018-10-12T11:27:51.381Z,16.13
2018-10-12T11:30:19.575Z,16.67
2018-10-12T11:32:47.186Z,13.63
2018-10-12T11:35:14.801Z,14.87
2018-10-12T11:37:42.326Z,16.23
2018-10-12T11:40:09.848Z,16.00
2018-10-12T11:42:48.838Z,16.07
2018-10-12T11:45:16.403Z,15.67
2018-10-12T11:47:44.016Z,16.07
2018-10-12T11:50:12.057Z,15.90
2018-10-12T11:52:40.340Z,15.93
2018-10-12T11:55:09.581Z,16.00
2018-10-12T11:57:37.716Z,16.13
2018-10-12T12:00:05.961Z,15.03
2018-10-12T12:02:34.556Z,15.40
2018-10-12T12:05:02.185Z,16.10
2018-10-12T12:07:29.806Z,15.97
2018-10-12T12:09:57.468Z,15.97
2018-10-12T12:12:25.045Z,14.87
2018-10-12T12:14:52.653Z,16.17
2018-10-12T12:17:21.026Z,16.33
2018-10-12T12:19:48.896Z,15.77
2018-10-12T12:22:16.520Z,15.80
2018-10-12T12:24:44.319Z,16.00
2018-10-12T12:27:11.971Z,15.77
2018-10-12T12:29:39.551Z,15.33
2018-10-12T12:32:07.211Z,15.53
2018-10-12T12:34:34.776Z,15.70
2018-10-12T12:37:02.301Z,16.53
2018-10-12T12:39:30.405Z,16.03
2018-10-12T12:41:58.056Z,15.77
2018-10-12T12:44:25.634Z,15.67
2018-10-12T12:46:53.266Z,15.90
2018-10-12T12:49:21.024Z,14.80
2018-10-12T12:51:48.345Z,14.70
2018-10-12T12:54:15.858Z,16.10
2018-10-12T12:56:43.545Z,15.73
2018-10-12T12:59:11.690Z,14.93
2018-10-12T13:01:39.235Z,15.67
2018-10-12T13:04:06.844Z,14.50
2018-10-12T13:06:35.048Z,15.70
2018-10-12T13:09:02.865Z,15.00
2018-10-12T13:11:30.335Z,16.07
2018-10-12T13:13:58.591Z,15.30
2018-10-12T13:16:26.169Z,15.70
2018-10-12T13:18:53.790Z,15.83
2018-10-12T13:21:21.276Z,15.33
2018-10-12T13:23:48.935Z,15.70
2018-10-12T13:26:16.645Z,15.43
2018-10-12T13:28:44.057Z,15.43
2018-10-12T13:31:11.873Z,15.30
2018-10-12T13:33:39.475Z,14.73
2018-10-12T13:36:07.846Z,15.93
2018-10-12T13:38:35.460Z,15.40
2018-10-12T13:41:03.165Z,14.93
2018-10-12T13:43:30.757Z,15.80
2018-10-12T13:45:58.277Z,16.13
2018-10-12T13:48:26.048Z,17.00
2018-10-12T13:50:54.450Z,16.27
2018-10-12T13:53:22.030Z,15.53
2018-10-12T13:55:49.544Z,16.17
2018-10-12T13:58:17.122Z,16.07
2018-10-12T14:00:44.804Z,16.20
2018-10-12T14:03:12.281Z,16.20
2018-10-12T14:05:40.277Z,15.67
2018-10-12T14:08:30.575Z,16.83
2018-10-12T14:10:58.330Z,16.13
2018-10-12T14:13:26.087Z,15.83
2018-10-12T14:15:53.775Z,17.07
2018-10-12T14:18:21.355Z,16.37
2018-10-12T14:20:48.775Z,16.33
2018-10-12T14:23:16.382Z,16.40
2018-10-12T14:25:44.104Z,16.30
2018-10-12T14:28:11.745Z,15.97
2018-10-12T14:30:39.307Z,16.87
2018-10-12T14:33:07.111Z,16.17
2018-10-12T14:35:34.742Z,15.57
2018-10-12T14:38:02.360Z,16.07
2018-10-12T14:40:29.887Z,15.97
2018-10-12T14:42:57.553Z,16.40
2018-10-12T14:45:25.255Z,17.10
2018-10-12T14:47:52.893Z,16.97
2018-10-12T14:50:20.397Z,18.13
2018-10-12T14:52:48.054Z,17.27
2018-10-12T14:55:15.649Z,16.60
2018-10-12T14:57:43.177Z,17.23
2018-10-12T15:00:10.802Z,17.90
2018-10-12T15:02:38.286Z,17.70
2018-10-12T15:05:06.756Z,18.13
2018-10-12T15:07:34.277Z,18.47
2018-10-12T15:10:02.284Z,18.27
2018-10-12T15:12:30.008Z,18.00
2018-10-12T15:15:21.139Z,18.97
2018-10-12T15:17:49.899Z,18.07
2018-10-12T15:20:17.579Z,18.40
2018-10-12T15:22:45.243Z,18.37
2018-10-12T15:25:12.882Z,18.70
2018-10-12T15:27:41.073Z,18.37
2018-10-12T15:30:09.135Z,18.57
2018-10-12T15:32:36.616Z,17.07
2018-10-12T15:35:04.437Z,19.23
2018-10-12T15:37:31.950Z,17.47
2018-10-12T15:39:59.937Z,19.03
2018-10-12T15:42:27.393Z,18.20
2018-10-12T15:44:54.866Z,19.03
2018-10-12T15:47:22.979Z,19.00
2018-10-12T15:49:50.681Z,18.67
2018-10-12T15:52:18.254Z,19.63
2018-10-12T15:54:45.878Z,19.40
2018-10-12T15:57:17.757Z,20.17
2018-10-12T15:59:45.649Z,18.80
2018-10-12T16:02:13.595Z,20.43
2018-10-12T16:04:41.177Z,19.90
2018-10-12T16:07:08.755Z,19.87
2018-10-12T16:09:36.373Z,20.37
2018-10-12T16:12:03.946Z,19.23
2018-10-12T16:14:31.640Z,20.77
2018-10-12T16:17:00.269Z,20.67
2018-10-12T16:19:27.976Z,20.00
2018-10-12T16:21:55.681Z,20.67
2018-10-12T16:24:23.237Z,21.13
2018-10-12T16:26:50.698Z,21.13
2018-10-12T16:29:19.594Z,20.90
2018-10-12T16:31:47.074Z,21.47
2018-10-12T16:34:14.670Z,22.07
2018-10-12T16:36:42.180Z,21.50
2018-10-12T16:39:10.315Z,21.23
2018-10-12T16:41:38.596Z,21.80
2018-10-12T16:44:06.123Z,22.43
2018-10-12T16:46:33.677Z,21.47
2018-10-12T16:49:02.153Z,22.00
2018-10-12T16:51:29.639Z,21.50
2018-10-12T16:53:57.115Z,20.90
2018-10-12T16:56:24.634Z,22.63
2018-10-12T16:58:52.120Z,21.10
2018-10-12T17:01:19.557Z,21.40
2018-10-12T17:03:47.012Z,23.07
2018-10-12T17:06:14.493Z,21.33
2018-10-12T17:08:41.954Z,22.83
2018-10-12T17:11:09.353Z,25.43
2018-10-12T17:13:36.865Z,21.47
2018-10-12T17:16:04.401Z,21.83
2018-10-12T17:18:31.922Z,22.13
2018-10-12T17:20:59.329Z,21.63
2018-10-12T17:23:26.756Z,23.97
2018-10-12T17:25:54.210Z,23.40
2018-10-12T17:28:21.766Z,22.50
2018-10-12T17:30:49.298Z,23.10
2018-10-12T17:33:16.781Z,22.57
2018-10-12T17:35:44.269Z,21.40
2018-10-12T17:38:11.719Z,23.07
2018-10-12T17:40:39.162Z,23.57
2018-10-12T17:43:06.791Z,21.67
2018-10-12T17:45:34.133Z,22.90
2018-10-12T17:48:01.592Z,22.50
2018-10-12T17:50:29.117Z,23.07
2018-10-12T17:52:56.572Z,24.67
2018-10-12T17:55:23.981Z,25.00
2018-10-12T17:57:51.481Z,24.03
2018-10-12T18:00:19.062Z,23.33
2018-10-12T18:02:46.424Z,23.73
2018-10-12T18:05:13.905Z,21.80
2018-10-12T18:07:41.468Z,24.87
2018-10-12T18:10:09.612Z,25.67
2018-10-12T18:12:37.022Z,25.57
2018-10-12T18:15:06.266Z,24.97
2018-10-12T18:17:33.648Z,27.33
2018-10-12T18:20:01.097Z,31.10
2018-10-12T18:22:28.645Z,23.97
2018-10-12T18:24:56.058Z,26.00
2018-10-12T18:27:23.490Z,29.83
2018-10-12T18:29:51.027Z,35.23
2018-10-12T18:32:18.582Z,28.60
2018-10-12T18:34:46.137Z,27.50
2018-10-12T18:37:13.649Z,28.60
2018-10-12T18:39:41.137Z,28.47
2018-10-12T18:42:08.674Z,27.97
2018-10-12T18:44:36.213Z,26.50
2018-10-12T18:47:03.773Z,24.40
2018-10-12T18:49:31.293Z,31.70
2018-10-12T18:51:58.829Z,31.47
2018-10-12T18:54:26.339Z,29.57
2018-10-12T18:56:53.772Z,34.43
2018-10-12T18:59:21.239Z,32.90
2018-10-12T19:01:48.704Z,27.97
2018-10-12T19:04:16.218Z,25.97
2018-10-12T19:06:43.687Z,26.60
2018-10-12T19:09:11.189Z,29.53
2018-10-12T19:11:39.573Z,33.67
2018-10-12T19:14:07.001Z,24.90
2018-10-12T19:16:34.497Z,27.30
2018-10-12T19:19:01.989Z,34.20
2018-10-12T19:21:29.702Z,32.27
2018-10-12T19:23:57.202Z,29.40
2018-10-12T19:26:24.677Z,26.30
2018-10-12T19:28:52.179Z,34.17
2018-10-12T19:31:19.653Z,31.57
2018-10-12T19:33:47.147Z,37.43
2018-10-12T19:36:14.625Z,32.50
2018-10-12T19:38:42.161Z,33.30
2018-10-12T19:41:09.663Z,31.77
2018-10-12T19:43:37.148Z,31.40
2018-10-12T19:46:04.644Z,30.67
2018-10-12T19:48:32.162Z,34.10
2018-10-12T19:50:59.640Z,37.10
2018-10-12T19:53:27.336Z,34.10
2018-10-12T19:55:54.876Z,30.97
2018-10-12T19:58:22.540Z,34.20
2018-10-12T20:00:50.029Z,33.43
2018-10-12T20:03:17.569Z,38.73
2018-10-12T20:05:45.014Z,36.20
2018-10-12T20:08:12.478Z,36.67
2018-10-12T20:10:39.941Z,35.97
2018-10-12T20:13:07.435Z,41.23
2018-10-12T20:15:34.936Z,34.40
2018-10-12T20:18:02.429Z,37.53
2018-10-12T20:20:29.905Z,30.73
2018-10-12T20:22:57.354Z,36.63
2018-10-12T20:25:24.839Z,35.80
2018-10-12T20:27:52.535Z,39.70
2018-10-12T20:30:20.076Z,35.63
2018-10-12T20:32:47.488Z,37.93
2018-10-12T20:35:14.992Z,35.23
2018-10-12T20:37:42.478Z,33.73
2018-10-12T20:40:10.041Z,42.50
2018-10-12T20:42:37.547Z,37.30
2018-10-12T20:45:05.037Z,39.70
2018-10-12T20:47:32.553Z,45.97
2018-10-12T20:50:00.046Z,43.63
2018-10-12T20:52:27.514Z,50.40
2018-10-12T20:54:55.052Z,34.53
2018-10-12T20:57:22.570Z,39.93
2018-10-12T20:59:50.029Z,33.30
2018-10-12T21:02:17.554Z,30.77
2018-10-12T21:04:45.043Z,33.20
2018-10-12T21:07:12.516Z,33.77
2018-10-12T21:09:39.958Z,34.93
2018-10-12T21:12:07.408Z,33.83
2018-10-12T21:14:34.858Z,30.97
2018-10-12T21:17:02.406Z,29.13
2018-10-12T21:19:29.962Z,36.57
2018-10-12T21:21:57.420Z,30.43
2018-10-12T21:24:24.875Z,32.50
2018-10-12T21:26:52.335Z,33.00
2018-10-12T21:29:19.827Z,30.97
2018-10-12T21:31:47.241Z,27.13
2018-10-12T21:34:14.750Z,31.97
2018-10-12T21:36:42.314Z,32.30
2018-10-12T21:39:09.781Z,32.17
2018-10-12T21:41:37.290Z,29.47
2018-10-12T21:44:04.669Z,27.67
2018-10-12T21:46:32.116Z,26.67
2018-10-12T21:48:59.514Z,27.33
2018-10-12T21:51:27.028Z,25.53
2018-10-12T21:53:54.441Z,29.57
2018-10-12T21:56:21.829Z,38.23
2018-10-12T21:58:49.445Z,34.63
2018-10-12T22:01:16.831Z,31.67
2018-10-12T22:03:44.213Z,27.53
2018-10-12T22:06:11.625Z,30.03
2018-10-12T22:08:44.569Z,36.10
2018-10-12T22:11:12.049Z,30.07
2018-10-12T22:13:39.496Z,28.40
2018-10-12T22:16:06.936Z,34.50
2018-10-12T22:18:34.356Z,31.70
2018-10-12T22:21:01.769Z,28.37
2018-10-12T22:23:29.200Z,21.80
2018-10-12T22:25:56.663Z,27.80
2018-10-12T22:28:24.039Z,25.67
2018-10-12T22:30:51.433Z,28.57
2018-10-12T22:33:18.842Z,31.40
2018-10-12T22:35:46.296Z,32.40
2018-10-12T22:38:13.758Z,31.23
2018-10-12T22:40:41.210Z,30.57
2018-10-12T22:43:08.636Z,28.17
2018-10-12T22:45:36.057Z,28.70
2018-10-12T22:48:03.531Z,26.47
2018-10-12T22:50:30.917Z,26.47
2018-10-12T22:52:58.352Z,27.37
2018-10-12T22:55:25.787Z,28.40
2018-10-12T22:57:58.985Z,24.23
2018-10-12T23:00:26.505Z,30.03
2018-10-12T23:02:53.906Z,38.03
2018-10-12T23:05:21.347Z,34.17
2018-10-12T23:07:48.741Z,27.80
2018-10-12T23:10:16.152Z,23.33
2018-10-12T23:12:43.746Z,21.17
2018-10-12T23:15:11.094Z,24.97
2018-10-12T23:17:38.484Z,26.43
2018-10-12T23:20:05.997Z,25.17
2018-10-12T23:22:33.418Z,29.90
2018-10-12T23:25:00.821Z,35.63
2018-10-12T23:27:28.276Z,40.47
2018-10-12T23:29:55.674Z,33.80
2018-10-12T23:32:23.052Z,47.70
2018-10-12T23:34:50.452Z,35.90
2018-10-12T23:37:17.862Z,37.33
2018-10-12T23:39:45.298Z,35.33
2018-10-12T23:42:12.749Z,31.20
2018-10-12T23:44:40.141Z,37.20
2018-10-12T23:47:07.621Z,30.77
2018-10-12T23:49:34.992Z,31.77
2018-10-12T23:52:02.397Z,34.03
2018-10-12T23:54:29.813Z,33.87
2018-10-12T23:56:57.249Z,32.13
2018-10-12T23:59:24.625Z,36.67
